sensor_id;sensor_type;location;lat;lon;timestamp;pressure;altitude;pressure_sealevel;temperature;humidity
65359;BME280;52491;45.900;6.346;2022-09-29T00:00:23;92334.63;;;24.18;39.10
65359;BME280;52491;45.900;6.346;2022-09-29T00:02:49;92338.09;;;24.19;39.36
65359;BME280;52491;45.900;6.346;2022-09-29T00:05:15;92334.63;;;24.18;39.09
65359;BME280;52491;45.900;6.346;2022-09-29T00:07:40;92333.84;;;24.18;39.22
65359;BME280;52491;45.900;6.346;2022-09-29T00:10:06;92326.66;;;24.18;39.16
65359;BME280;52491;45.900;6.346;2022-09-29T00:12:31;92329.59;;;24.17;39.10
65359;BME280;52491;45.900;6.346;2022-09-29T00:14:57;92324.00;;;24.18;39.04
65359;BME280;52491;45.900;6.346;2022-09-29T00:17:23;92325.09;;;24.17;39.18
65359;BME280;52491;45.900;6.346;2022-09-29T00:19:48;92319.75;;;24.17;38.88
65359;BME280;52491;45.900;6.346;2022-09-29T00:22:14;92322.09;;;24.19;38.88
65359;BME280;52491;45.900;6.346;2022-09-29T00:24:40;92308.50;;;24.20;38.83
65359;BME280;52491;45.900;6.346;2022-09-29T00:27:05;92309.28;;;24.21;38.86
65359;BME280;52491;45.900;6.346;2022-09-29T00:29:31;92312.06;;;24.16;39.05
65359;BME280;52491;45.900;6.346;2022-09-29T00:31:56;92303.28;;;24.15;39.13
65359;BME280;52491;45.900;6.346;2022-09-29T00:34:22;92301.69;;;24.14;38.78
65359;BME280;52491;45.900;6.346;2022-09-29T00:36:48;92299.03;;;24.14;39.15
65359;BME280;52491;45.900;6.346;2022-09-29T00:39:13;92293.25;;;24.12;38.97
65359;BME280;52491;45.900;6.346;2022-09-29T00:41:40;92294.81;;;24.13;38.92
65359;BME280;52491;45.900;6.346;2022-09-29T00:46:54;92299.63;;;24.11;39.00
65359;BME280;52491;45.900;6.346;2022-09-29T00:49:42;92294.31;;;24.11;38.73
65359;BME280;52491;45.900;6.346;2022-09-29T00:54:42;92292.44;;;24.11;38.94
65359;BME280;52491;45.900;6.346;2022-09-29T00:57:10;92288.50;;;24.09;39.01
65359;BME280;52491;45.900;6.346;2022-09-29T00:59:44;92286.63;;;24.09;38.70
65359;BME280;52491;45.900;6.346;2022-09-29T01:02:13;92287.41;;;24.10;38.92
65359;BME280;52491;45.900;6.346;2022-09-29T01:04:39;92285.25;;;24.12;38.73
65359;BME280;52491;45.900;6.346;2022-09-29T01:07:08;92284.16;;;24.13;38.57
65359;BME280;52491;45.900;6.346;2022-09-29T01:09:36;92280.72;;;24.12;38.75
65359;BME280;52491;45.900;6.346;2022-09-29T01:12:03;92276.75;;;24.10;38.66
65359;BME280;52491;45.900;6.346;2022-09-29T01:14:31;92284.47;;;24.11;38.68
65359;BME280;52491;45.900;6.346;2022-09-29T01:16:58;92283.38;;;24.12;38.52
65359;BME280;52491;45.900;6.346;2022-09-29T01:19:34;92293.53;;;24.10;38.56
65359;BME280;52491;45.900;6.346;2022-09-29T01:25:18;92278.31;;;24.11;38.45
65359;BME280;52491;45.900;6.346;2022-09-29T01:28:20;92285.03;;;24.08;38.75
65359;BME280;52491;45.900;6.346;2022-09-29T01:34:05;92274.38;;;24.08;38.46
65359;BME280;52491;45.900;6.346;2022-09-29T01:36:53;92278.94;;;24.08;38.74
65359;BME280;52491;45.900;6.346;2022-09-29T01:39:31;92266.72;;;24.07;38.45
65359;BME280;52491;45.900;6.346;2022-09-29T01:42:20;92270.47;;;24.06;38.68
65359;BME280;52491;45.900;6.346;2022-09-29T01:45:17;92251.16;;;24.00;38.65
65359;BME280;52491;45.900;6.346;2022-09-29T01:47:50;92259.16;;;24.00;38.75
65359;BME280;52491;45.900;6.346;2022-09-29T01:50:23;92262.59;;;24.01;38.65
65359;BME280;52491;45.900;6.346;2022-09-29T01:52:55;92270.88;;;23.99;38.70
65359;BME280;52491;45.900;6.346;2022-09-29T01:55:25;92271.34;;;24.01;38.72
65359;BME280;52491;45.900;6.346;2022-09-29T01:57:56;92271.03;;;24.03;38.64
65359;BME280;52491;45.900;6.346;2022-09-29T02:00:25;92270.25;;;24.02;38.73
65359;BME280;52491;45.900;6.346;2022-09-29T02:05:35;92258.84;;;24.02;38.67
65359;BME280;52491;45.900;6.346;2022-09-29T02:08:10;92263.38;;;24.01;38.56
65359;BME280;52491;45.900;6.346;2022-09-29T02:11:06;92261.31;;;23.98;38.65
65359;BME280;52491;45.900;6.346;2022-09-29T02:14:10;92264.56;;;23.95;38.49
65359;BME280;52491;45.900;6.346;2022-09-29T02:16:36;92257.38;;;23.96;38.55
65359;BME280;52491;45.900;6.346;2022-09-29T02:19:28;92265.34;;;23.96;38.62
65359;BME280;52491;45.900;6.346;2022-09-29T02:21:55;92259.03;;;23.92;38.71
65359;BME280;52491;45.900;6.346;2022-09-29T02:24:22;92267.03;;;23.92;38.54
65359;BME280;52491;45.900;6.346;2022-09-29T02:26:49;92268.63;;;23.93;38.58
65359;BME280;52491;45.900;6.346;2022-09-29T02:29:16;92271.78;;;23.95;38.55
65359;BME280;52491;45.900;6.346;2022-09-29T02:31:42;92283.50;;;23.94;38.62
65359;BME280;52491;45.900;6.346;2022-09-29T02:34:12;92272.34;;;23.92;38.46
65359;BME280;52491;45.900;6.346;2022-09-29T02:37:47;92261.22;;;23.89;38.48
65359;BME280;52491;45.900;6.346;2022-09-29T02:53:54;92247.72;;;23.86;38.66
65359;BME280;52491;45.900;6.346;2022-09-29T02:56:36;92250.88;;;23.88;38.50
65359;BME280;52491;45.900;6.346;2022-09-29T02:59:10;92245.38;;;23.84;38.68
65359;BME280;52491;45.900;6.346;2022-09-29T03:01:56;92245.38;;;23.84;38.68
65359;BME280;52491;45.900;6.346;2022-09-29T03:04:26;92244.47;;;23.89;38.64
65359;BME280;52491;45.900;6.346;2022-09-29T03:06:52;92246.84;;;23.90;38.65
65359;BME280;52491;45.900;6.346;2022-09-29T03:09:18;92248.41;;;23.92;38.50
65359;BME280;52491;45.900;6.346;2022-09-29T03:11:44;92254.53;;;23.92;38.36
65359;BME280;52491;45.900;6.346;2022-09-29T03:14:10;92258.25;;;23.91;38.11
65359;BME280;52491;45.900;6.346;2022-09-29T03:16:36;92261.69;;;23.92;38.50
65359;BME280;52491;45.900;6.346;2022-09-29T03:19:03;92259.84;;;23.92;38.35
65359;BME280;52491;45.900;6.346;2022-09-29T03:21:30;92259.03;;;23.92;38.48
65359;BME280;52491;45.900;6.346;2022-09-29T03:23:56;92256.38;;;23.92;38.24
65359;BME280;52491;45.900;6.346;2022-09-29T03:26:22;92254.53;;;23.92;38.25
65359;BME280;52491;45.900;6.346;2022-09-29T03:28:51;92260.91;;;23.91;38.37
65359;BME280;52491;45.900;6.346;2022-09-29T03:31:17;92253.72;;;23.92;38.41
65359;BME280;52491;45.900;6.346;2022-09-29T03:33:43;92260.91;;;23.91;38.48
65359;BME280;52491;45.900;6.346;2022-09-29T03:36:09;92263.13;;;23.89;38.46
65359;BME280;52491;45.900;6.346;2022-09-29T03:38:36;92258.56;;;23.89;37.91
65359;BME280;52491;45.900;6.346;2022-09-29T03:41:02;92256.69;;;23.90;38.47
65359;BME280;52491;45.900;6.346;2022-09-29T03:43:28;92247.44;;;23.87;38.36
65359;BME280;52491;45.900;6.346;2022-09-29T03:45:54;92245.88;;;23.86;38.48
65359;BME280;52491;45.900;6.346;2022-09-29T03:48:21;92236.78;;;23.87;38.25
65359;BME280;52491;45.900;6.346;2022-09-29T03:50:48;92241.59;;;23.85;38.36
65359;BME280;52491;45.900;6.346;2022-09-29T03:53:15;92243.50;;;23.85;38.40
65359;BME280;52491;45.900;6.346;2022-09-29T03:55:45;92244.78;;;23.87;38.38
65359;BME280;52491;45.900;6.346;2022-09-29T03:58:11;92244.78;;;23.87;38.43
65359;BME280;52491;45.900;6.346;2022-09-29T04:00:37;92241.59;;;23.85;38.40
65359;BME280;52491;45.900;6.346;2022-09-29T04:03:02;92246.34;;;23.88;38.29
65359;BME280;52491;45.900;6.346;2022-09-29T04:05:28;92246.53;;;23.92;38.05
65359;BME280;52491;45.900;6.346;2022-09-29T04:07:54;92237.56;;;23.88;38.32
65359;BME280;52491;45.900;6.346;2022-09-29T04:10:20;92246.66;;;23.87;38.33
65359;BME280;52491;45.900;6.346;2022-09-29T04:12:45;92251.47;;;23.85;38.32
65359;BME280;52491;45.900;6.346;2022-09-29T04:15:11;92256.00;;;23.84;38.56
65359;BME280;52491;45.900;6.346;2022-09-29T04:17:36;92260.56;;;23.84;38.54
65359;BME280;52491;45.900;6.346;2022-09-29T04:20:02;92258.06;;;23.87;38.46
65359;BME280;52491;45.900;6.346;2022-09-29T04:22:28;92266.06;;;23.87;38.42
65359;BME280;52491;45.900;6.346;2022-09-29T04:24:54;92278.59;;;23.87;38.26
65359;BME280;52491;45.900;6.346;2022-09-29T04:27:20;92261.22;;;23.89;38.07
65359;BME280;52491;45.900;6.346;2022-09-29T04:29:45;92260.75;;;23.87;38.27
65359;BME280;52491;45.900;6.346;2022-09-29T04:32:11;92272.16;;;23.88;38.29
65359;BME280;52491;45.900;6.346;2022-09-29T04:34:37;92271.09;;;23.89;38.26
65359;BME280;52491;45.900;6.346;2022-09-29T04:37:02;92268.63;;;23.93;38.20
65359;BME280;52491;45.900;6.346;2022-09-29T04:39:28;92271.09;;;23.89;38.21
65359;BME280;52491;45.900;6.346;2022-09-29T04:41:53;92265.97;;;23.93;38.16
65359;BME280;52491;45.900;6.346;2022-09-29T04:44:19;92271.09;;;23.89;38.27
65359;BME280;52491;45.900;6.346;2022-09-29T04:46:49;92270.28;;;23.88;38.31
65359;BME280;52491;45.900;6.346;2022-09-29T04:49:15;92264.97;;;23.88;38.41
65359;BME280;52491;45.900;6.346;2022-09-29T04:51:40;92273.75;;;23.89;38.26
65359;BME280;52491;45.900;6.346;2022-09-29T04:54:06;92276.88;;;23.91;38.40
65359;BME280;52491;45.900;6.346;2022-09-29T04:56:32;92273.63;;;23.94;38.15
65359;BME280;52491;45.900;6.346;2022-09-29T04:58:58;92280.78;;;24.21;37.60
65359;BME280;52491;45.900;6.346;2022-09-29T05:01:24;92277.69;;;24.28;37.53
65359;BME280;52491;45.900;6.346;2022-09-29T05:03:50;92285.88;;;24.31;37.29
65359;BME280;52491;45.900;6.346;2022-09-29T05:06:16;92289.34;;;24.32;37.44
65359;BME280;52491;45.900;6.346;2022-09-29T05:08:41;92284.28;;;24.30;37.59
65359;BME280;52491;45.900;6.346;2022-09-29T05:11:08;92294.34;;;24.33;37.56
65359;BME280;52491;45.900;6.346;2022-09-29T05:13:34;92302.34;;;24.33;37.47
65359;BME280;52491;45.900;6.346;2022-09-29T05:16:00;92310.31;;;24.33;37.41
65359;BME280;52491;45.900;6.346;2022-09-29T05:18:26;92300.16;;;24.35;37.27
65359;BME280;52491;45.900;6.346;2022-09-29T05:20:54;92297.31;;;24.32;37.53
65359;BME280;52491;45.900;6.346;2022-09-29T05:23:21;92309.38;;;24.16;37.73
65359;BME280;52491;45.900;6.346;2022-09-29T05:25:47;92316.72;;;23.96;38.29
65359;BME280;52491;45.900;6.346;2022-09-29T05:28:13;92304.28;;;23.92;38.22
65359;BME280;52491;45.900;6.346;2022-09-29T05:30:40;92303.81;;;23.89;38.47
65359;BME280;52491;45.900;6.346;2022-09-29T05:33:08;92308.34;;;23.89;38.49
65359;BME280;52491;45.900;6.346;2022-09-29T05:35:33;92314.25;;;23.86;38.31
65359;BME280;52491;45.900;6.346;2022-09-29T05:37:59;92314.84;;;23.83;38.67
65359;BME280;52491;45.900;6.346;2022-09-29T05:40:25;92327.38;;;23.82;38.57
65359;BME280;52491;45.900;6.346;2022-09-29T05:42:51;92322.63;;;23.79;38.43
65359;BME280;52491;45.900;6.346;2022-09-29T05:45:17;92330.03;;;23.82;38.90
65359;BME280;52491;45.900;6.346;2022-09-29T05:47:44;92331.03;;;23.86;38.42
65359;BME280;52491;45.900;6.346;2022-09-29T05:50:11;92339.28;;;23.85;38.39
65359;BME280;52491;45.900;6.346;2022-09-29T05:52:37;92340.84;;;23.86;38.31
65359;BME280;52491;45.900;6.346;2022-09-29T05:55:04;92329.75;;;23.84;38.61
65359;BME280;52491;45.900;6.346;2022-09-29T05:57:30;92343.16;;;23.79;38.73
65359;BME280;52491;45.900;6.346;2022-09-29T05:59:56;92350.81;;;23.80;38.92
65359;BME280;52491;45.900;6.346;2022-09-29T06:02:21;92349.25;;;23.79;38.64
65359;BME280;52491;45.900;6.346;2022-09-29T06:04:48;92350.53;;;23.82;38.83
65359;BME280;52491;45.900;6.346;2022-09-29T06:07:13;92352.41;;;23.81;38.56
65359;BME280;52491;45.900;6.346;2022-09-29T06:09:39;92355.66;;;23.92;38.53
65359;BME280;52491;45.900;6.346;2022-09-29T06:12:05;92356.75;;;23.91;38.42
65359;BME280;52491;45.900;6.346;2022-09-29T06:14:30;92354.06;;;23.91;38.72
65359;BME280;52491;45.900;6.346;2022-09-29T06:16:56;92354.06;;;23.91;38.57
65359;BME280;52491;45.900;6.346;2022-09-29T06:19:21;92362.06;;;23.91;38.40
65359;BME280;52491;45.900;6.346;2022-09-29T06:21:47;92356.75;;;23.91;38.71
65359;BME280;52491;45.900;6.346;2022-09-29T06:24:13;92354.06;;;23.91;38.71
65359;BME280;52491;45.900;6.346;2022-09-29T06:26:38;92349.53;;;23.92;38.53
65359;BME280;52491;45.900;6.346;2022-09-29T06:29:04;92349.53;;;23.92;38.68
65359;BME280;52491;45.900;6.346;2022-09-29T06:31:30;92358.03;;;23.94;38.53
65359;BME280;52491;45.900;6.346;2022-09-29T06:34:01;92355.06;;;23.95;38.51
65359;BME280;52491;45.900;6.346;2022-09-29T06:36:43;92354.84;;;23.92;38.50
65359;BME280;52491;45.900;6.346;2022-09-29T06:39:28;92359.41;;;23.77;38.70
65359;BME280;52491;45.900;6.346;2022-09-29T06:41:55;92357.81;;;23.76;38.75
65359;BME280;52491;45.900;6.346;2022-09-29T06:44:27;92359.69;;;23.76;38.75
65359;BME280;52491;45.900;6.346;2022-09-29T06:46:55;92360.00;;;23.74;38.71
65359;BME280;52491;45.900;6.346;2022-09-29T06:49:22;92358.91;;;23.75;38.80
65359;BME280;52491;45.900;6.346;2022-09-29T06:51:48;92359.19;;;23.74;38.94
65359;BME280;52491;45.900;6.346;2022-09-29T06:54:16;92358.69;;;23.72;38.63
65359;BME280;52491;45.900;6.346;2022-09-29T06:56:45;92365.13;;;23.71;38.75
65359;BME280;52491;45.900;6.346;2022-09-29T06:59:12;92359.78;;;23.71;38.80
65359;BME280;52491;45.900;6.346;2022-09-29T07:01:37;92355.03;;;23.67;38.86
65359;BME280;52491;45.900;6.346;2022-09-29T07:04:03;92361.13;;;23.68;38.93
65359;BME280;52491;45.900;6.346;2022-09-29T07:06:29;92364.31;;;23.70;38.84
65359;BME280;52491;45.900;6.346;2022-09-29T07:08:56;92356.81;;;23.72;38.92
65359;BME280;52491;45.900;6.346;2022-09-29T07:11:23;92359.47;;;23.72;38.64
65359;BME280;52491;45.900;6.346;2022-09-29T07:13:50;92360.28;;;23.73;38.60
65359;BME280;52491;45.900;6.346;2022-09-29T07:16:16;92370.13;;;23.72;38.67
65359;BME280;52491;45.900;6.346;2022-09-29T07:18:42;92370.63;;;23.74;38.52
65359;BME280;52491;45.900;6.346;2022-09-29T07:21:10;92384.25;;;23.73;38.66
65359;BME280;52491;45.900;6.346;2022-09-29T07:23:36;92384.00;;;23.69;38.85
65359;BME280;52491;45.900;6.346;2022-09-29T07:26:04;92387.47;;;23.70;38.73
65359;BME280;52491;45.900;6.346;2022-09-29T07:28:30;92389.84;;;23.71;38.44
65359;BME280;52491;45.900;6.346;2022-09-29T07:31:05;92384.81;;;23.70;38.91
65359;BME280;52491;45.900;6.346;2022-09-29T07:33:31;92385.88;;;23.68;38.52
65359;BME280;52491;45.900;6.346;2022-09-29T07:35:57;92382.44;;;23.68;38.74
65359;BME280;52491;45.900;6.346;2022-09-29T07:38:28;92387.75;;;23.68;38.68
65359;BME280;52491;45.900;6.346;2022-09-29T07:40:58;92383.22;;;23.68;38.74
65359;BME280;52491;45.900;6.346;2022-09-29T07:43:24;92386.78;;;23.64;38.62
65359;BME280;52491;45.900;6.346;2022-09-29T07:45:50;92384.91;;;23.64;38.69
65359;BME280;52491;45.900;6.346;2022-09-29T07:48:16;92389.13;;;23.65;38.65
65359;BME280;52491;45.900;6.346;2022-09-29T07:50:43;92387.75;;;23.68;38.62
65359;BME280;52491;45.900;6.346;2022-09-29T07:53:10;92386.19;;;23.67;38.52
65359;BME280;52491;45.900;6.346;2022-09-29T07:55:36;92385.69;;;23.65;38.53
65359;BME280;52491;45.900;6.346;2022-09-29T07:58:02;92386.66;;;23.69;38.49
65359;BME280;52491;45.900;6.346;2022-09-29T08:00:28;92388.25;;;23.70;38.54
65359;BME280;52491;45.900;6.346;2022-09-29T08:03:05;92380.25;;;23.70;38.52
65359;BME280;52491;45.900;6.346;2022-09-29T08:05:33;92385.38;;;23.66;38.68
65359;BME280;52491;45.900;6.346;2022-09-29T08:08:03;92389.91;;;23.66;38.68
65359;BME280;52491;45.900;6.346;2022-09-29T08:10:30;92386.97;;;23.67;38.59
65359;BME280;52491;45.900;6.346;2022-09-29T08:12:55;92379.47;;;23.70;38.40
65359;BME280;52491;45.900;6.346;2022-09-29T08:15:21;92383.22;;;23.68;38.43
65359;BME280;52491;45.900;6.346;2022-09-29T08:17:48;92385.88;;;23.68;38.57
65359;BME280;52491;45.900;6.346;2022-09-29T08:20:13;92380.25;;;23.70;38.44
65359;BME280;52491;45.900;6.346;2022-09-29T08:22:39;92386.41;;;23.71;38.48
65359;BME280;52491;45.900;6.346;2022-09-29T08:25:06;92386.41;;;23.71;38.46
65359;BME280;52491;45.900;6.346;2022-09-29T08:27:32;92379.47;;;23.70;38.54
65359;BME280;52491;45.900;6.346;2022-09-29T08:29:58;92379.47;;;23.70;38.35
65359;BME280;52491;45.900;6.346;2022-09-29T08:32:24;92386.19;;;23.67;38.50
65359;BME280;52491;45.900;6.346;2022-09-29T08:34:49;92384.59;;;23.66;38.52
65359;BME280;52491;45.900;6.346;2022-09-29T08:37:15;92380.34;;;23.65;38.64
65359;BME280;52491;45.900;6.346;2022-09-29T08:39:41;92382.22;;;23.64;38.42
65359;BME280;52491;45.900;6.346;2022-09-29T08:45:03;92385.69;;;23.65;38.61
65359;BME280;52491;45.900;6.346;2022-09-29T08:47:35;92381.91;;;23.66;38.57
65359;BME280;52491;45.900;6.346;2022-09-29T08:52:34;92388.34;;;23.65;38.24
65359;BME280;52491;45.900;6.346;2022-09-29T08:55:20;92389.13;;;23.65;38.76
65359;BME280;52491;45.900;6.346;2022-09-29T08:57:56;92393.34;;;23.66;38.46
65359;BME280;52491;45.900;6.346;2022-09-29T09:00:32;92390.69;;;23.66;38.41
65359;BME280;52491;45.900;6.346;2022-09-29T09:10:44;92399.25;;;23.63;38.45
65359;BME280;52491;45.900;6.346;2022-09-29T09:21:43;92395.81;;;23.63;38.47
65359;BME280;52491;45.900;6.346;2022-09-29T09:24:15;92396.59;;;23.63;38.40
65359;BME280;52491;45.900;6.346;2022-09-29T09:26:44;92390.50;;;23.63;38.26
65359;BME280;52491;45.900;6.346;2022-09-29T09:29:36;92391.59;;;23.62;38.36
65359;BME280;52491;45.900;6.346;2022-09-29T09:34:39;92389.22;;;23.60;38.36
65359;BME280;52491;45.900;6.346;2022-09-29T09:37:13;92388.16;;;23.61;38.29
65359;BME280;52491;45.900;6.346;2022-09-29T09:42:27;92391.59;;;23.62;38.25
65359;BME280;52491;45.900;6.346;2022-09-29T09:45:05;92385.47;;;23.61;38.44
65359;BME280;52491;45.900;6.346;2022-09-29T09:47:52;92385.19;;;23.63;38.41
65359;BME280;52491;45.900;6.346;2022-09-29T09:50:22;92389.13;;;23.65;38.24
65359;BME280;52491;45.900;6.346;2022-09-29T09:53:48;92383.81;;;23.65;38.33
65359;BME280;52491;45.900;6.346;2022-09-29T10:01:24;92388.63;;;23.63;38.31
65359;BME280;52491;45.900;6.346;2022-09-29T10:03:51;92388.63;;;23.63;38.25
65359;BME280;52491;45.900;6.346;2022-09-29T10:06:17;92389.13;;;23.65;38.27
65359;BME280;52491;45.900;6.346;2022-09-29T10:08:42;92390.50;;;23.63;38.36
65359;BME280;52491;45.900;6.346;2022-09-29T10:11:22;92388.94;;;23.62;38.25
65359;BME280;52491;45.900;6.346;2022-09-29T10:14:25;92383.59;;;23.62;38.07
65359;BME280;52491;45.900;6.346;2022-09-29T10:16:45;92377.50;;;23.61;38.20
65359;BME280;52491;45.900;6.346;2022-09-29T10:19:12;92380.16;;;23.61;38.36
65359;BME280;52491;45.900;6.346;2022-09-29T10:21:43;92379.84;;;23.63;38.17
65359;BME280;52491;45.900;6.346;2022-09-29T10:24:26;92385.75;;;23.60;38.41
65359;BME280;52491;45.900;6.346;2022-09-29T10:26:55;92386.25;;;23.62;38.20
65359;BME280;52491;45.900;6.346;2022-09-29T10:29:38;92384.66;;;23.61;38.31
65359;BME280;52491;45.900;6.346;2022-09-29T10:32:16;92386.34;;;23.57;38.29
65359;BME280;52491;45.900;6.346;2022-09-29T10:34:49;92380.25;;;23.56;38.44
65359;BME280;52491;45.900;6.346;2022-09-29T10:37:36;92388.50;;;23.55;38.44
65359;BME280;52491;45.900;6.346;2022-09-29T10:40:16;92379.47;;;23.56;38.40
65359;BME280;52491;45.900;6.346;2022-09-29T10:42:44;92376.31;;;23.54;38.38
65359;BME280;52491;45.900;6.346;2022-09-29T10:45:19;92380.06;;;23.53;38.38
65359;BME280;52491;45.900;6.346;2022-09-29T10:50:32;92382.41;;;23.54;38.30
65359;BME280;52491;45.900;6.346;2022-09-29T10:53:02;92381.31;;;23.55;38.29
65359;BME280;52491;45.900;6.346;2022-09-29T10:55:33;92379.75;;;23.54;38.37
65359;BME280;52491;45.900;6.346;2022-09-29T11:00:45;92383.41;;;23.58;38.26
65359;BME280;52491;45.900;6.346;2022-09-29T11:03:24;92386.84;;;23.59;38.32
65359;BME280;52491;45.900;6.346;2022-09-29T11:05:54;92391.41;;;23.58;38.43
65359;BME280;52491;45.900;6.346;2022-09-29T11:08:23;92391.66;;;23.57;38.34
65359;BME280;52491;45.900;6.346;2022-09-29T11:13:38;92379.47;;;23.56;38.33
65359;BME280;52491;45.900;6.346;2022-09-29T11:16:15;92387.91;;;23.58;38.37
65359;BME280;52491;45.900;6.346;2022-09-29T11:18:44;92380.75;;;23.58;38.39
65359;BME280;52491;45.900;6.346;2022-09-29T11:30:13;92386.16;;;23.53;38.59
65359;BME280;52491;45.900;6.346;2022-09-29T11:35:54;92386.94;;;23.54;38.52
65359;BME280;52491;45.900;6.346;2022-09-29T11:38:37;92388.50;;;23.55;38.54
65359;BME280;52491;45.900;6.346;2022-09-29T11:44:08;92399.81;;;23.46;38.65
65359;BME280;52491;45.900;6.346;2022-09-29T11:49:42;92396.22;;;23.56;38.39
65359;BME280;52491;45.900;6.346;2022-09-29T11:52:23;92404.19;;;23.56;38.55
65359;BME280;52491;45.900;6.346;2022-09-29T11:55:20;92406.84;;;23.56;38.57
65359;BME280;52491;45.900;6.346;2022-09-29T12:01:02;92399.66;;;23.57;38.50
65359;BME280;52491;45.900;6.346;2022-09-29T12:03:47;92402.31;;;23.57;38.34
65359;BME280;52491;45.900;6.346;2022-09-29T12:06:43;92398.66;;;23.53;38.46
65359;BME280;52491;45.900;6.346;2022-09-29T12:09:39;92394.41;;;23.52;38.65
65359;BME280;52491;45.900;6.346;2022-09-29T12:15:35;92397.28;;;23.55;38.32
65359;BME280;52491;45.900;6.346;2022-09-29T12:18:12;92392.75;;;23.56;38.38
65359;BME280;52491;45.900;6.346;2022-09-29T12:20:42;92400.25;;;23.54;38.16
65359;BME280;52491;45.900;6.346;2022-09-29T12:23:10;92399.03;;;23.46;37.99
65359;BME280;52491;45.900;6.346;2022-09-29T12:25:43;92393.22;;;23.44;38.16
65359;BME280;52491;45.900;6.346;2022-09-29T12:28:17;92392.03;;;23.36;38.46
65359;BME280;52491;45.900;6.346;2022-09-29T12:30:51;92397.66;;;23.49;38.20
65359;BME280;52491;45.900;6.346;2022-09-29T12:33:37;92395.50;;;23.51;38.07
65359;BME280;52491;45.900;6.346;2022-09-29T12:36:15;92389.09;;;23.52;38.10
65359;BME280;52491;45.900;6.346;2022-09-29T12:39:27;92396.28;;;23.51;37.97
65359;BME280;52491;45.900;6.346;2022-09-29T12:44:38;92404.47;;;23.55;37.82
65359;BME280;52491;45.900;6.346;2022-09-29T12:47:37;92400.53;;;23.52;37.89
65359;BME280;52491;45.900;6.346;2022-09-29T12:50:07;92402.91;;;23.54;37.92
65359;BME280;52491;45.900;6.346;2022-09-29T12:55:22;92407.91;;;23.55;37.74
65359;BME280;52491;45.900;6.346;2022-09-29T12:57:50;92424.47;;;23.52;37.51
65359;BME280;52491;45.900;6.346;2022-09-29T13:00:19;92416.28;;;23.49;37.45
65359;BME280;52491;45.900;6.346;2022-09-29T13:06:21;92412.84;;;23.48;37.68
65359;BME280;52491;45.900;6.346;2022-09-29T13:16:58;92417.84;;;23.50;37.65
65359;BME280;52491;45.900;6.346;2022-09-29T13:25:10;92430.66;;;23.48;37.69
65359;BME280;52491;45.900;6.346;2022-09-29T13:27:43;92441.00;;;23.49;37.71
65359;BME280;52491;45.900;6.346;2022-09-29T13:30:35;92439.44;;;23.48;37.73
65359;BME280;52491;45.900;6.346;2022-09-29T13:33:20;92436.47;;;23.50;37.74
65359;BME280;52491;45.900;6.346;2022-09-29T13:35:47;92434.63;;;23.50;37.83
65359;BME280;52491;45.900;6.346;2022-09-29T13:38:20;92439.63;;;23.52;37.81
65359;BME280;52491;45.900;6.346;2022-09-29T13:46:25;92436.97;;;23.52;37.73
65359;BME280;52491;45.900;6.346;2022-09-29T13:49:01;92442.28;;;23.52;37.59
65359;BME280;52491;45.900;6.346;2022-09-29T13:57:16;92436.97;;;23.52;37.71
65359;BME280;52491;45.900;6.346;2022-09-29T14:02:37;92440.72;;;23.51;37.68
65359;BME280;52491;45.900;6.346;2022-09-29T14:13:05;92444.16;;;23.51;37.65
65359;BME280;52491;45.900;6.346;2022-09-29T14:15:42;92450.34;;;23.46;37.70
65359;BME280;52491;45.900;6.346;2022-09-29T14:18:40;92452.75;;;23.48;37.72
65359;BME280;52491;45.900;6.346;2022-09-29T14:21:08;92450.06;;;23.48;37.79
65359;BME280;52491;45.900;6.346;2022-09-29T14:24:00;92449.56;;;23.46;37.95
65359;BME280;52491;45.900;6.346;2022-09-29T14:29:23;92452.09;;;23.37;38.08
65359;BME280;52491;45.900;6.346;2022-09-29T14:31:54;92460.22;;;23.46;37.91
65359;BME280;52491;45.900;6.346;2022-09-29T14:34:24;92454.63;;;23.48;38.04
65359;BME280;52491;45.900;6.346;2022-09-29T14:36:53;92463.25;;;23.39;38.13
65359;BME280;52491;45.900;6.346;2022-09-29T14:39:21;92460.38;;;23.36;38.26
65359;BME280;52491;45.900;6.346;2022-09-29T14:41:48;92464.91;;;23.35;38.45
65359;BME280;52491;45.900;6.346;2022-09-29T14:46:57;92464.13;;;23.35;38.49
65359;BME280;52491;45.900;6.346;2022-09-29T14:50:13;92474.47;;;23.36;38.58
65359;BME280;52491;45.900;6.346;2022-09-29T15:01:58;92478.19;;;23.35;38.69
65359;BME280;52491;45.900;6.346;2022-09-29T15:04:30;92472.59;;;23.37;38.81
65359;BME280;52491;45.900;6.346;2022-09-29T15:07:03;92476.03;;;23.37;38.86
65359;BME280;52491;45.900;6.346;2022-09-29T15:09:35;92467.34;;;23.32;39.03
65359;BME280;52491;45.900;6.346;2022-09-29T15:12:00;92473.53;;;23.27;39.26
65359;BME280;52491;45.900;6.346;2022-09-29T15:14:32;92475.13;;;23.28;39.14
65359;BME280;52491;45.900;6.346;2022-09-29T15:19:33;92476.56;;;23.39;39.01
65359;BME280;52491;45.900;6.346;2022-09-29T15:27:31;92479.78;;;23.36;39.16
65359;BME280;52491;45.900;6.346;2022-09-29T15:29:57;92474.75;;;23.35;39.28
65359;BME280;52491;45.900;6.346;2022-09-29T15:32:26;92481.66;;;23.36;39.38
65359;BME280;52491;45.900;6.346;2022-09-29T15:34:58;92478.78;;;23.32;39.42
65359;BME280;52491;45.900;6.346;2022-09-29T15:37:25;92484.88;;;23.33;39.44
65359;BME280;52491;45.900;6.346;2022-09-29T15:39:52;92481.94;;;23.34;39.48
65359;BME280;52491;45.900;6.346;2022-09-29T15:42:20;92485.19;;;23.31;39.51
65359;BME280;52491;45.900;6.346;2022-09-29T15:44:53;92485.19;;;23.31;39.52
65359;BME280;52491;45.900;6.346;2022-09-29T15:47:28;92487.34;;;23.29;39.60
65359;BME280;52491;45.900;6.346;2022-09-29T15:50:03;92492.06;;;23.32;39.62
65359;BME280;52491;45.900;6.346;2022-09-29T15:52:29;92493.16;;;23.31;39.59
65359;BME280;52491;45.900;6.346;2022-09-29T15:54:57;92487.84;;;23.31;39.67
65359;BME280;52491;45.900;6.346;2022-09-29T15:57:39;92489.72;;;23.31;39.69
65359;BME280;52491;45.900;6.346;2022-09-29T16:05:39;92502.22;;;23.30;39.76